sensor_id;sensor_type;location;lat;lon;timestamp;P1;durP1;ratioP1;P2;durP2;ratioP2
67595;SDS011;54410;48.694;8.934;2023-05-01T00:00:26;3.93;;;2.83;;
67595;SDS011;54410;48.694;8.934;2023-05-01T00:02:52;5.33;;;2.83;;
67595;SDS011;54410;48.694;8.934;2023-05-01T00:05:18;5.40;;;3.30;;
67595;SDS011;54410;48.694;8.934;2023-05-01T00:07:44;4.60;;;2.63;;
67595;SDS011;54410;48.694;8.934;2023-05-01T00:10:11;5.47;;;3.40;;
67595;SDS011;54410;48.694;8.934;2023-05-01T00:12:37;5.03;;;3.00;;
67595;SDS011;54410;48.694;8.934;2023-05-01T00:15:04;4.03;;;3.30;;
67595;SDS011;54410;48.694;8.934;2023-05-01T00:17:31;4.17;;;3.10;;
67595;SDS011;54410;48.694;8.934;2023-05-01T00:19:56;7.63;;;4.07;;
67595;SDS011;54410;48.694;8.934;2023-05-01T00:22:23;4.47;;;2.80;;
67595;SDS011;54410;48.694;8.934;2023-05-01T00:24:49;7.07;;;3.60;;
67595;SDS011;54410;48.694;8.934;2023-05-01T00:27:15;4.88;;;3.38;;
67595;SDS011;54410;48.694;8.934;2023-05-01T00:29:41;5.38;;;3.60;;
67595;SDS011;54410;48.694;8.934;2023-05-01T00:32:07;6.73;;;3.73;;
67595;SDS011;54410;48.694;8.934;2023-05-01T00:34:34;7.97;;;4.30;;
67595;SDS011;54410;48.694;8.934;2023-05-01T00:37:00;4.13;;;3.43;;
67595;SDS011;54410;48.694;8.934;2023-05-01T00:39:26;5.17;;;3.63;;
67595;SDS011;54410;48.694;8.934;2023-05-01T00:41:53;5.53;;;3.80;;
67595;SDS011;54410;48.694;8.934;2023-05-01T00:44:19;8.63;;;4.00;;
67595;SDS011;54410;48.694;8.934;2023-05-01T00:46:46;4.50;;;3.07;;
67595;SDS011;54410;48.694;8.934;2023-05-01T00:49:12;4.37;;;3.17;;
67595;SDS011;54410;48.694;8.934;2023-05-01T00:51:39;4.83;;;3.97;;
67595;SDS011;54410;48.694;8.934;2023-05-01T00:54:05;4.17;;;3.50;;
67595;SDS011;54410;48.694;8.934;2023-05-01T00:56:31;6.43;;;4.10;;
67595;SDS011;54410;48.694;8.934;2023-05-01T00:58:59;7.53;;;4.05;;
67595;SDS011;54410;48.694;8.934;2023-05-01T01:01:25;4.83;;;3.53;;
67595;SDS011;54410;48.694;8.934;2023-05-01T01:03:52;4.77;;;3.77;;
67595;SDS011;54410;48.694;8.934;2023-05-01T01:06:41;4.68;;;3.60;;
67595;SDS011;54410;48.694;8.934;2023-05-01T01:09:26;5.33;;;3.57;;
67595;SDS011;54410;48.694;8.934;2023-05-01T01:23:12;5.63;;;3.07;;
67595;SDS011;54410;48.694;8.934;2023-05-01T01:35:00;5.82;;;4.05;;
67595;SDS011;54410;48.694;8.934;2023-05-01T01:37:31;5.63;;;3.90;;
67595;SDS011;54410;48.694;8.934;2023-05-01T01:40:21;4.88;;;2.80;;
67595;SDS011;54410;48.694;8.934;2023-05-01T01:42:50;4.90;;;3.95;;
67595;SDS011;54410;48.694;8.934;2023-05-01T01:45:24;5.17;;;3.40;;
67595;SDS011;54410;48.694;8.934;2023-05-01T01:47:53;6.70;;;3.50;;
67595;SDS011;54410;48.694;8.934;2023-05-01T01:50:23;4.53;;;3.07;;
67595;SDS011;54410;48.694;8.934;2023-05-01T01:52:51;5.73;;;3.40;;
67595;SDS011;54410;48.694;8.934;2023-05-01T01:55:24;3.43;;;2.70;;
67595;SDS011;54410;48.694;8.934;2023-05-01T01:57:51;4.70;;;3.07;;
67595;SDS011;54410;48.694;8.934;2023-05-01T02:00:18;4.23;;;3.10;;
67595;SDS011;54410;48.694;8.934;2023-05-01T02:02:46;6.97;;;2.70;;
67595;SDS011;54410;48.694;8.934;2023-05-01T02:05:14;2.87;;;2.53;;
67595;SDS011;54410;48.694;8.934;2023-05-01T02:07:41;4.17;;;3.10;;
67595;SDS011;54410;48.694;8.934;2023-05-01T02:10:11;3.77;;;2.87;;
67595;SDS011;54410;48.694;8.934;2023-05-01T02:12:38;3.57;;;2.80;;
67595;SDS011;54410;48.694;8.934;2023-05-01T02:15:05;3.03;;;2.73;;
67595;SDS011;54410;48.694;8.934;2023-05-01T02:17:33;4.07;;;3.00;;
67595;SDS011;54410;48.694;8.934;2023-05-01T02:20:02;4.73;;;3.30;;
67595;SDS011;54410;48.694;8.934;2023-05-01T02:22:31;3.17;;;2.60;;
67595;SDS011;54410;48.694;8.934;2023-05-01T02:24:58;4.90;;;3.20;;
67595;SDS011;54410;48.694;8.934;2023-05-01T02:27:29;3.33;;;2.43;;
67595;SDS011;54410;48.694;8.934;2023-05-01T02:30:03;3.87;;;2.97;;
67595;SDS011;54410;48.694;8.934;2023-05-01T02:32:33;3.97;;;2.80;;
67595;SDS011;54410;48.694;8.934;2023-05-01T02:35:00;3.83;;;3.10;;
67595;SDS011;54410;48.694;8.934;2023-05-01T02:37:27;3.80;;;2.53;;
67595;SDS011;54410;48.694;8.934;2023-05-01T02:39:55;3.03;;;2.73;;
67595;SDS011;54410;48.694;8.934;2023-05-01T02:42:21;4.53;;;2.97;;
67595;SDS011;54410;48.694;8.934;2023-05-01T02:44:55;3.37;;;2.47;;
67595;SDS011;54410;48.694;8.934;2023-05-01T02:47:22;4.17;;;3.20;;
67595;SDS011;54410;48.694;8.934;2023-05-01T02:49:51;3.17;;;2.87;;
67595;SDS011;54410;48.694;8.934;2023-05-01T02:52:19;4.73;;;3.03;;
67595;SDS011;54410;48.694;8.934;2023-05-01T02:54:48;3.60;;;2.87;;
67595;SDS011;54410;48.694;8.934;2023-05-01T02:57:16;4.13;;;2.93;;
67595;SDS011;54410;48.694;8.934;2023-05-01T02:59:43;3.30;;;2.77;;
67595;SDS011;54410;48.694;8.934;2023-05-01T03:02:10;5.63;;;3.67;;
67595;SDS011;54410;48.694;8.934;2023-05-01T03:04:41;3.97;;;2.73;;
67595;SDS011;54410;48.694;8.934;2023-05-01T03:07:08;3.30;;;2.97;;
67595;SDS011;54410;48.694;8.934;2023-05-01T03:09:33;4.63;;;3.27;;
67595;SDS011;54410;48.694;8.934;2023-05-01T03:12:01;4.93;;;3.33;;
67595;SDS011;54410;48.694;8.934;2023-05-01T03:14:26;4.33;;;2.77;;
67595;SDS011;54410;48.694;8.934;2023-05-01T03:16:53;5.10;;;3.30;;
67595;SDS011;54410;48.694;8.934;2023-05-01T03:19:19;3.80;;;2.80;;
67595;SDS011;54410;48.694;8.934;2023-05-01T03:21:45;6.63;;;3.43;;
67595;SDS011;54410;48.694;8.934;2023-05-01T03:24:11;4.73;;;3.20;;
67595;SDS011;54410;48.694;8.934;2023-05-01T03:26:41;4.67;;;3.13;;
67595;SDS011;54410;48.694;8.934;2023-05-01T03:29:07;5.80;;;3.60;;
67595;SDS011;54410;48.694;8.934;2023-05-01T03:31:33;3.87;;;2.77;;
67595;SDS011;54410;48.694;8.934;2023-05-01T03:34:00;4.00;;;3.10;;
67595;SDS011;54410;48.694;8.934;2023-05-01T03:36:27;3.87;;;2.83;;
67595;SDS011;54410;48.694;8.934;2023-05-01T03:38:57;3.83;;;2.80;;
67595;SDS011;54410;48.694;8.934;2023-05-01T03:41:23;5.23;;;3.20;;
67595;SDS011;54410;48.694;8.934;2023-05-01T03:43:52;4.90;;;3.50;;
67595;SDS011;54410;48.694;8.934;2023-05-01T03:46:18;3.77;;;2.80;;
67595;SDS011;54410;48.694;8.934;2023-05-01T03:48:43;4.20;;;3.10;;
67595;SDS011;54410;48.694;8.934;2023-05-01T03:51:09;4.00;;;3.17;;
67595;SDS011;54410;48.694;8.934;2023-05-01T03:53:35;3.63;;;3.00;;
67595;SDS011;54410;48.694;8.934;2023-05-01T03:56:01;3.90;;;3.20;;
67595;SDS011;54410;48.694;8.934;2023-05-01T03:58:29;3.33;;;2.53;;
67595;SDS011;54410;48.694;8.934;2023-05-01T04:00:57;4.00;;;3.13;;
67595;SDS011;54410;48.694;8.934;2023-05-01T04:03:25;3.77;;;2.93;;
67595;SDS011;54410;48.694;8.934;2023-05-01T04:05:51;3.30;;;2.70;;
67595;SDS011;54410;48.694;8.934;2023-05-01T04:08:19;4.70;;;3.43;;
67595;SDS011;54410;48.694;8.934;2023-05-01T04:10:46;3.90;;;2.83;;
67595;SDS011;54410;48.694;8.934;2023-05-01T04:13:12;3.80;;;3.07;;
67595;SDS011;54410;48.694;8.934;2023-05-01T04:15:38;4.70;;;3.00;;
67595;SDS011;54410;48.694;8.934;2023-05-01T04:18:09;4.63;;;3.43;;
67595;SDS011;54410;48.694;8.934;2023-05-01T04:20:37;3.50;;;2.60;;
67595;SDS011;54410;48.694;8.934;2023-05-01T04:23:04;3.63;;;2.90;;
67595;SDS011;54410;48.694;8.934;2023-05-01T04:25:30;4.20;;;3.20;;
67595;SDS011;54410;48.694;8.934;2023-05-01T04:27:58;4.37;;;3.40;;
67595;SDS011;54410;48.694;8.934;2023-05-01T04:30:25;3.53;;;3.00;;
67595;SDS011;54410;48.694;8.934;2023-05-01T04:32:52;3.17;;;2.60;;
67595;SDS011;54410;48.694;8.934;2023-05-01T04:35:18;3.93;;;3.20;;
67595;SDS011;54410;48.694;8.934;2023-05-01T04:37:43;3.77;;;3.03;;
67595;SDS011;54410;48.694;8.934;2023-05-01T04:40:11;3.87;;;3.40;;
67595;SDS011;54410;48.694;8.934;2023-05-01T04:42:37;3.63;;;2.90;;
67595;SDS011;54410;48.694;8.934;2023-05-01T04:45:04;4.53;;;3.27;;
67595;SDS011;54410;48.694;8.934;2023-05-01T04:47:30;3.90;;;3.03;;
67595;SDS011;54410;48.694;8.934;2023-05-01T04:49:57;8.02;;;4.90;;
67595;SDS011;54410;48.694;8.934;2023-05-01T04:52:23;14.18;;;8.05;;
67595;SDS011;54410;48.694;8.934;2023-05-01T04:54:49;10.20;;;6.10;;
67595;SDS011;54410;48.694;8.934;2023-05-01T04:57:15;6.63;;;4.80;;
67595;SDS011;54410;48.694;8.934;2023-05-01T04:59:43;5.05;;;3.35;;
67595;SDS011;54410;48.694;8.934;2023-05-01T05:02:09;4.50;;;3.10;;
67595;SDS011;54410;48.694;8.934;2023-05-01T05:04:35;5.30;;;3.20;;
67595;SDS011;54410;48.694;8.934;2023-05-01T05:07:01;7.87;;;4.57;;
67595;SDS011;54410;48.694;8.934;2023-05-01T05:09:28;4.27;;;3.40;;
67595;SDS011;54410;48.694;8.934;2023-05-01T05:11:54;4.18;;;3.33;;
67595;SDS011;54410;48.694;8.934;2023-05-01T05:14:20;5.28;;;3.75;;
67595;SDS011;54410;48.694;8.934;2023-05-01T05:16:49;4.82;;;3.58;;
67595;SDS011;54410;48.694;8.934;2023-05-01T05:19:16;3.33;;;2.67;;
67595;SDS011;54410;48.694;8.934;2023-05-01T05:21:42;4.57;;;3.50;;
67595;SDS011;54410;48.694;8.934;2023-05-01T05:24:08;4.70;;;3.60;;
67595;SDS011;54410;48.694;8.934;2023-05-01T05:26:35;3.73;;;3.03;;
67595;SDS011;54410;48.694;8.934;2023-05-01T05:29:02;4.72;;;3.55;;
67595;SDS011;54410;48.694;8.934;2023-05-01T05:31:29;3.75;;;2.83;;
67595;SDS011;54410;48.694;8.934;2023-05-01T05:33:54;4.97;;;3.50;;
67595;SDS011;54410;48.694;8.934;2023-05-01T05:36:22;4.63;;;3.65;;
67595;SDS011;54410;48.694;8.934;2023-05-01T05:38:52;4.15;;;3.13;;
67595;SDS011;54410;48.694;8.934;2023-05-01T05:41:18;6.00;;;3.97;;
67595;SDS011;54410;48.694;8.934;2023-05-01T05:43:44;5.30;;;3.60;;
67595;SDS011;54410;48.694;8.934;2023-05-01T05:46:10;5.35;;;4.00;;
67595;SDS011;54410;48.694;8.934;2023-05-01T05:48:36;7.07;;;4.55;;
67595;SDS011;54410;48.694;8.934;2023-05-01T05:51:02;5.93;;;3.85;;
67595;SDS011;54410;48.694;8.934;2023-05-01T05:53:29;6.40;;;4.10;;
67595;SDS011;54410;48.694;8.934;2023-05-01T05:55:56;7.45;;;4.47;;
67595;SDS011;54410;48.694;8.934;2023-05-01T05:58:23;5.20;;;4.03;;
67595;SDS011;54410;48.694;8.934;2023-05-01T06:00:49;5.07;;;3.75;;
67595;SDS011;54410;48.694;8.934;2023-05-01T06:03:18;4.95;;;3.97;;
67595;SDS011;54410;48.694;8.934;2023-05-01T06:05:44;5.10;;;3.80;;
67595;SDS011;54410;48.694;8.934;2023-05-01T06:08:10;5.53;;;4.13;;
67595;SDS011;54410;48.694;8.934;2023-05-01T06:10:38;6.30;;;4.30;;
67595;SDS011;54410;48.694;8.934;2023-05-01T06:13:05;6.03;;;3.65;;
67595;SDS011;54410;48.694;8.934;2023-05-01T06:15:35;4.20;;;3.10;;
67595;SDS011;54410;48.694;8.934;2023-05-01T06:18:01;4.80;;;3.30;;
67595;SDS011;54410;48.694;8.934;2023-05-01T06:20:27;5.93;;;4.20;;
67595;SDS011;54410;48.694;8.934;2023-05-01T06:22:56;5.15;;;3.55;;
67595;SDS011;54410;48.694;8.934;2023-05-01T06:25:23;4.85;;;3.75;;
67595;SDS011;54410;48.694;8.934;2023-05-01T06:27:49;5.05;;;3.65;;
67595;SDS011;54410;48.694;8.934;2023-05-01T06:30:16;4.63;;;3.65;;
67595;SDS011;54410;48.694;8.934;2023-05-01T06:32:44;6.60;;;4.07;;
67595;SDS011;54410;48.694;8.934;2023-05-01T06:35:11;5.75;;;4.22;;
67595;SDS011;54410;48.694;8.934;2023-05-01T06:37:37;4.50;;;3.55;;
67595;SDS011;54410;48.694;8.934;2023-05-01T06:40:04;5.05;;;4.18;;
67595;SDS011;54410;48.694;8.934;2023-05-01T06:42:31;5.65;;;3.80;;
67595;SDS011;54410;48.694;8.934;2023-05-01T06:44:57;4.65;;;3.83;;
67595;SDS011;54410;48.694;8.934;2023-05-01T06:47:23;3.47;;;2.90;;
67595;SDS011;54410;48.694;8.934;2023-05-01T06:49:50;4.90;;;3.95;;
67595;SDS011;54410;48.694;8.934;2023-05-01T06:52:16;5.78;;;3.67;;
67595;SDS011;54410;48.694;8.934;2023-05-01T06:54:44;3.60;;;3.08;;
67595;SDS011;54410;48.694;8.934;2023-05-01T06:57:10;5.57;;;3.85;;
67595;SDS011;54410;48.694;8.934;2023-05-01T06:59:35;3.88;;;3.38;;
67595;SDS011;54410;48.694;8.934;2023-05-01T07:02:02;4.03;;;3.08;;
67595;SDS011;54410;48.694;8.934;2023-05-01T07:04:29;4.18;;;3.42;;
67595;SDS011;54410;48.694;8.934;2023-05-01T07:06:56;3.13;;;2.83;;
67595;SDS011;54410;48.694;8.934;2023-05-01T07:09:21;5.13;;;3.60;;
67595;SDS011;54410;48.694;8.934;2023-05-01T07:11:50;4.05;;;3.60;;
67595;SDS011;54410;48.694;8.934;2023-05-01T07:14:16;3.90;;;2.65;;
67595;SDS011;54410;48.694;8.934;2023-05-01T07:16:42;5.22;;;3.95;;
67595;SDS011;54410;48.694;8.934;2023-05-01T07:19:08;3.92;;;3.38;;
67595;SDS011;54410;48.694;8.934;2023-05-01T07:21:34;4.80;;;3.40;;
67595;SDS011;54410;48.694;8.934;2023-05-01T07:24:00;4.03;;;3.28;;
67595;SDS011;54410;48.694;8.934;2023-05-01T07:26:25;4.47;;;3.28;;
67595;SDS011;54410;48.694;8.934;2023-05-01T07:28:51;5.00;;;3.45;;
67595;SDS011;54410;48.694;8.934;2023-05-01T07:31:17;4.57;;;3.35;;
67595;SDS011;54410;48.694;8.934;2023-05-01T07:33:44;6.22;;;3.40;;
67595;SDS011;54410;48.694;8.934;2023-05-01T07:36:09;4.20;;;3.25;;
67595;SDS011;54410;48.694;8.934;2023-05-01T07:38:35;4.35;;;3.20;;
67595;SDS011;54410;48.694;8.934;2023-05-01T07:41:01;3.90;;;3.45;;
67595;SDS011;54410;48.694;8.934;2023-05-01T07:43:27;4.75;;;3.40;;
67595;SDS011;54410;48.694;8.934;2023-05-01T07:45:57;4.47;;;3.38;;
67595;SDS011;54410;48.694;8.934;2023-05-01T07:48:24;4.65;;;3.10;;
67595;SDS011;54410;48.694;8.934;2023-05-01T07:50:51;5.30;;;3.47;;
67595;SDS011;54410;48.694;8.934;2023-05-01T07:53:16;4.15;;;3.42;;
67595;SDS011;54410;48.694;8.934;2023-05-01T07:55:42;5.00;;;3.30;;
67595;SDS011;54410;48.694;8.934;2023-05-01T07:58:08;4.13;;;3.10;;
67595;SDS011;54410;48.694;8.934;2023-05-01T08:00:34;5.28;;;3.65;;
67595;SDS011;54410;48.694;8.934;2023-05-01T08:03:00;4.22;;;3.28;;
67595;SDS011;54410;48.694;8.934;2023-05-01T08:05:26;4.22;;;3.08;;
67595;SDS011;54410;48.694;8.934;2023-05-01T08:07:52;8.57;;;4.10;;
67595;SDS011;54410;48.694;8.934;2023-05-01T08:10:18;4.43;;;3.40;;
67595;SDS011;54410;48.694;8.934;2023-05-01T08:12:44;4.55;;;3.30;;
67595;SDS011;54410;48.694;8.934;2023-05-01T08:15:11;3.95;;;3.15;;
67595;SDS011;54410;48.694;8.934;2023-05-01T08:17:37;6.00;;;3.42;;
67595;SDS011;54410;48.694;8.934;2023-05-01T08:20:03;5.60;;;3.00;;
67595;SDS011;54410;48.694;8.934;2023-05-01T08:22:29;5.55;;;3.53;;
67595;SDS011;54410;48.694;8.934;2023-05-01T08:24:56;3.40;;;3.10;;
67595;SDS011;54410;48.694;8.934;2023-05-01T08:27:22;3.42;;;3.10;;
67595;SDS011;54410;48.694;8.934;2023-05-01T08:29:48;5.13;;;3.70;;
67595;SDS011;54410;48.694;8.934;2023-05-01T08:32:14;4.35;;;3.50;;
67595;SDS011;54410;48.694;8.934;2023-05-01T08:34:41;4.53;;;3.65;;
67595;SDS011;54410;48.694;8.934;2023-05-01T08:37:07;4.90;;;3.80;;
67595;SDS011;54410;48.694;8.934;2023-05-01T08:39:33;4.45;;;3.78;;
67595;SDS011;54410;48.694;8.934;2023-05-01T08:41:59;5.38;;;3.75;;
67595;SDS011;54410;48.694;8.934;2023-05-01T08:44:25;6.63;;;3.78;;
67595;SDS011;54410;48.694;8.934;2023-05-01T08:49:21;4.10;;;3.55;;
67595;SDS011;54410;48.694;8.934;2023-05-01T08:51:51;5.90;;;4.03;;
67595;SDS011;54410;48.694;8.934;2023-05-01T08:54:20;4.95;;;3.70;;
67595;SDS011;54410;48.694;8.934;2023-05-01T08:56:46;4.00;;;3.38;;
67595;SDS011;54410;48.694;8.934;2023-05-01T08:59:12;4.00;;;2.97;;
67595;SDS011;54410;48.694;8.934;2023-05-01T09:01:39;5.32;;;3.53;;
67595;SDS011;54410;48.694;8.934;2023-05-01T09:04:07;5.25;;;3.25;;
67595;SDS011;54410;48.694;8.934;2023-05-01T09:06:34;3.50;;;2.92;;
67595;SDS011;54410;48.694;8.934;2023-05-01T09:09:00;4.07;;;3.10;;
67595;SDS011;54410;48.694;8.934;2023-05-01T09:11:26;4.90;;;3.60;;
67595;SDS011;54410;48.694;8.934;2023-05-01T09:13:52;5.32;;;3.40;;
67595;SDS011;54410;48.694;8.934;2023-05-01T09:16:19;3.95;;;3.10;;
67595;SDS011;54410;48.694;8.934;2023-05-01T09:18:45;4.07;;;3.67;;
67595;SDS011;54410;48.694;8.934;2023-05-01T09:21:11;4.40;;;3.25;;
67595;SDS011;54410;48.694;8.934;2023-05-01T09:23:37;5.28;;;3.17;;
67595;SDS011;54410;48.694;8.934;2023-05-01T09:26:05;4.07;;;2.97;;
67595;SDS011;54410;48.694;8.934;2023-05-01T09:28:40;3.95;;;3.42;;
67595;SDS011;54410;48.694;8.934;2023-05-01T09:33:52;5.22;;;3.60;;
67595;SDS011;54410;48.694;8.934;2023-05-01T09:36:18;3.15;;;2.85;;
67595;SDS011;54410;48.694;8.934;2023-05-01T09:38:44;2.90;;;2.30;;
67595;SDS011;54410;48.694;8.934;2023-05-01T09:41:11;3.45;;;2.83;;
67595;SDS011;54410;48.694;8.934;2023-05-01T09:43:37;3.08;;;2.63;;
67595;SDS011;54410;48.694;8.934;2023-05-01T09:46:05;2.38;;;2.17;;
67595;SDS011;54410;48.694;8.934;2023-05-01T09:48:33;2.53;;;2.33;;
67595;SDS011;54410;48.694;8.934;2023-05-01T09:50:59;4.00;;;2.83;;
67595;SDS011;54410;48.694;8.934;2023-05-01T09:53:38;3.28;;;2.70;;
67595;SDS011;54410;48.694;8.934;2023-05-01T09:56:04;3.55;;;2.83;;
67595;SDS011;54410;48.694;8.934;2023-05-01T09:58:32;3.80;;;2.75;;
67595;SDS011;54410;48.694;8.934;2023-05-01T10:00:57;4.45;;;3.08;;
67595;SDS011;54410;48.694;8.934;2023-05-01T10:03:23;2.67;;;2.47;;
67595;SDS011;54410;48.694;8.934;2023-05-01T10:05:49;2.13;;;1.92;;
67595;SDS011;54410;48.694;8.934;2023-05-01T10:08:15;4.60;;;2.92;;
67595;SDS011;54410;48.694;8.934;2023-05-01T10:10:41;3.95;;;2.30;;
67595;SDS011;54410;48.694;8.934;2023-05-01T10:13:14;2.45;;;2.17;;
67595;SDS011;54410;48.694;8.934;2023-05-01T10:15:41;2.65;;;2.38;;
67595;SDS011;54410;48.694;8.934;2023-05-01T10:18:09;3.03;;;2.60;;
67595;SDS011;54410;48.694;8.934;2023-05-01T10:20:36;3.60;;;2.80;;
67595;SDS011;54410;48.694;8.934;2023-05-01T10:23:02;3.38;;;2.67;;
67595;SDS011;54410;48.694;8.934;2023-05-01T10:25:28;3.38;;;2.60;;
67595;SDS011;54410;48.694;8.934;2023-05-01T10:27:54;3.25;;;2.42;;
67595;SDS011;54410;48.694;8.934;2023-05-01T10:30:21;2.50;;;2.30;;
67595;SDS011;54410;48.694;8.934;2023-05-01T10:32:47;2.88;;;2.50;;
67595;SDS011;54410;48.694;8.934;2023-05-01T10:35:20;3.15;;;2.67;;
67595;SDS011;54410;48.694;8.934;2023-05-01T10:38:01;4.07;;;2.47;;
67595;SDS011;54410;48.694;8.934;2023-05-01T10:45:44;3.05;;;2.60;;
67595;SDS011;54410;48.694;8.934;2023-05-01T10:48:10;7.00;;;2.70;;
67595;SDS011;54410;48.694;8.934;2023-05-01T10:53:35;4.25;;;2.83;;
67595;SDS011;54410;48.694;8.934;2023-05-01T10:56:02;3.65;;;3.17;;
67595;SDS011;54410;48.694;8.934;2023-05-01T10:59:12;3.15;;;2.85;;
67595;SDS011;54410;48.694;8.934;2023-05-01T11:04:01;3.90;;;2.92;;
67595;SDS011;54410;48.694;8.934;2023-05-01T11:06:28;3.78;;;2.92;;
67595;SDS011;54410;48.694;8.934;2023-05-01T11:08:54;3.30;;;2.97;;
67595;SDS011;54410;48.694;8.934;2023-05-01T11:13:56;3.88;;;3.10;;
67595;SDS011;54410;48.694;8.934;2023-05-01T11:19:47;5.28;;;3.60;;
67595;SDS011;54410;48.694;8.934;2023-05-01T11:21:54;5.20;;;3.55;;
67595;SDS011;54410;48.694;8.934;2023-05-01T11:24:21;4.28;;;3.13;;
67595;SDS011;54410;48.694;8.934;2023-05-01T11:26:55;6.07;;;3.28;;
67595;SDS011;54410;48.694;8.934;2023-05-01T11:29:23;5.13;;;2.83;;
67595;SDS011;54410;48.694;8.934;2023-05-01T11:31:57;3.80;;;3.00;;
67595;SDS011;54410;48.694;8.934;2023-05-01T11:34:24;3.70;;;3.22;;
67595;SDS011;54410;48.694;8.934;2023-05-01T11:36:50;4.43;;;3.20;;
67595;SDS011;54410;48.694;8.934;2023-05-01T11:39:16;3.55;;;2.85;;
67595;SDS011;54410;48.694;8.934;2023-05-01T11:41:43;4.85;;;3.47;;
67595;SDS011;54410;48.694;8.934;2023-05-01T11:44:13;3.97;;;3.33;;
67595;SDS011;54410;48.694;8.934;2023-05-01T11:46:40;4.18;;;3.10;;
67595;SDS011;54410;48.694;8.934;2023-05-01T11:49:06;3.53;;;3.00;;
67595;SDS011;54410;48.694;8.934;2023-05-01T11:51:33;3.30;;;2.90;;
67595;SDS011;54410;48.694;8.934;2023-05-01T11:54:00;5.47;;;2.88;;
67595;SDS011;54410;48.694;8.934;2023-05-01T11:56:26;3.42;;;2.60;;
67595;SDS011;54410;48.694;8.934;2023-05-01T11:58:53;2.97;;;2.67;;
67595;SDS011;54410;48.694;8.934;2023-05-01T12:01:20;2.88;;;2.58;;
67595;SDS011;54410;48.694;8.934;2023-05-01T12:03:46;3.42;;;2.72;;
67595;SDS011;54410;48.694;8.934;2023-05-01T12:06:12;5.00;;;3.03;;
67595;SDS011;54410;48.694;8.934;2023-05-01T12:08:42;3.35;;;3.00;;
67595;SDS011;54410;48.694;8.934;2023-05-01T12:11:09;3.08;;;2.40;;
67595;SDS011;54410;48.694;8.934;2023-05-01T12:13:35;3.55;;;2.92;;
67595;SDS011;54410;48.694;8.934;2023-05-01T12:16:00;3.63;;;2.70;;
67595;SDS011;54410;48.694;8.934;2023-05-01T12:18:28;3.88;;;3.40;;
67595;SDS011;54410;48.694;8.934;2023-05-01T12:20:54;5.10;;;3.50;;
67595;SDS011;54410;48.694;8.934;2023-05-01T12:23:33;3.65;;;2.80;;
67595;SDS011;54410;48.694;8.934;2023-05-01T12:26:01;3.88;;;3.47;;
67595;SDS011;54410;48.694;8.934;2023-05-01T12:28:27;4.93;;;3.35;;
67595;SDS011;54410;48.694;8.934;2023-05-01T12:30:57;3.55;;;2.75;;
67595;SDS011;54410;48.694;8.934;2023-05-01T12:33:26;3.92;;;2.85;;
67595;SDS011;54410;48.694;8.934;2023-05-01T12:35:51;4.78;;;3.25;;
67595;SDS011;54410;48.694;8.934;2023-05-01T12:38:20;4.18;;;3.17;;
67595;SDS011;54410;48.694;8.934;2023-05-01T12:43:18;5.00;;;3.67;;
67595;SDS011;54410;48.694;8.934;2023-05-01T12:45:44;4.75;;;3.17;;
67595;SDS011;54410;48.694;8.934;2023-05-01T12:48:13;6.05;;;3.67;;
67595;SDS011;54410;48.694;8.934;2023-05-01T12:50:39;7.65;;;5.10;;
67595;SDS011;54410;48.694;8.934;2023-05-01T12:53:05;5.05;;;3.60;;
67595;SDS011;54410;48.694;8.934;2023-05-01T12:55:43;5.43;;;3.83;;
67595;SDS011;54410;48.694;8.934;2023-05-01T12:58:09;5.22;;;3.70;;
67595;SDS011;54410;48.694;8.934;2023-05-01T13:00:45;3.40;;;2.92;;
67595;SDS011;54410;48.694;8.934;2023-05-01T13:03:11;7.93;;;3.42;;
67595;SDS011;54410;48.694;8.934;2023-05-01T13:05:53;6.10;;;3.58;;
67595;SDS011;54410;48.694;8.934;2023-05-01T13:10:53;6.13;;;4.43;;
67595;SDS011;54410;48.694;8.934;2023-05-01T13:13:26;7.03;;;4.57;;
67595;SDS011;54410;48.694;8.934;2023-05-01T13:15:53;6.97;;;4.97;;
67595;SDS011;54410;48.694;8.934;2023-05-01T13:18:19;5.97;;;3.90;;
67595;SDS011;54410;48.694;8.934;2023-05-01T13:20:45;5.97;;;4.45;;
67595;SDS011;54410;48.694;8.934;2023-05-01T13:23:11;8.00;;;4.25;;
67595;SDS011;54410;48.694;8.934;2023-05-01T13:25:37;6.10;;;4.30;;
67595;SDS011;54410;48.694;8.934;2023-05-01T13:28:03;6.50;;;4.65;;
67595;SDS011;54410;48.694;8.934;2023-05-01T13:30:30;6.90;;;4.72;;
67595;SDS011;54410;48.694;8.934;2023-05-01T13:32:56;5.57;;;4.07;;
67595;SDS011;54410;48.694;8.934;2023-05-01T13:35:22;7.13;;;4.82;;
67595;SDS011;54410;48.694;8.934;2023-05-01T13:37:50;8.45;;;4.10;;
67595;SDS011;54410;48.694;8.934;2023-05-01T13:40:16;4.72;;;3.50;;
67595;SDS011;54410;48.694;8.934;2023-05-01T13:42:43;3.45;;;2.95;;
67595;SDS011;54410;48.694;8.934;2023-05-01T13:45:10;4.10;;;3.13;;
67595;SDS011;54410;48.694;8.934;2023-05-01T13:47:38;4.28;;;3.10;;
67595;SDS011;54410;48.694;8.934;2023-05-01T13:50:07;4.32;;;3.20;;
67595;SDS011;54410;48.694;8.934;2023-05-01T13:52:33;4.35;;;2.80;;
67595;SDS011;54410;48.694;8.934;2023-05-01T13:55:06;3.08;;;2.78;;
67595;SDS011;54410;48.694;8.934;2023-05-01T13:57:32;3.67;;;3.17;;
67595;SDS011;54410;48.694;8.934;2023-05-01T14:00:00;3.42;;;3.13;;
67595;SDS011;54410;48.694;8.934;2023-05-01T14:02:27;5.88;;;4.35;;
67595;SDS011;54410;48.694;8.934;2023-05-01T14:04:53;5.68;;;3.80;;
67595;SDS011;54410;48.694;8.934;2023-05-01T14:07:23;4.63;;;4.05;;
67595;SDS011;54410;48.694;8.934;2023-05-01T14:09:56;6.15;;;3.90;;
67595;SDS011;54410;48.694;8.934;2023-05-01T14:12:23;5.30;;;4.00;;
67595;SDS011;54410;48.694;8.934;2023-05-01T14:14:50;4.35;;;3.45;;
67595;SDS011;54410;48.694;8.934;2023-05-01T14:17:17;4.15;;;3.17;;
67595;SDS011;54410;48.694;8.934;2023-05-01T14:19:43;4.68;;;3.28;;
67595;SDS011;54410;48.694;8.934;2023-05-01T14:22:09;4.43;;;3.80;;
67595;SDS011;54410;48.694;8.934;2023-05-01T14:24:36;6.10;;;4.30;;
67595;SDS011;54410;48.694;8.934;2023-05-01T14:27:07;5.50;;;3.97;;
67595;SDS011;54410;48.694;8.934;2023-05-01T14:29:34;5.82;;;4.30;;
67595;SDS011;54410;48.694;8.934;2023-05-01T14:32:03;5.35;;;4.35;;
67595;SDS011;54410;48.694;8.934;2023-05-01T14:34:30;6.40;;;4.18;;
67595;SDS011;54410;48.694;8.934;2023-05-01T14:36:57;8.23;;;4.88;;
67595;SDS011;54410;48.694;8.934;2023-05-01T14:39:24;10.68;;;5.75;;
67595;SDS011;54410;48.694;8.934;2023-05-01T14:41:51;5.25;;;3.63;;
67595;SDS011;54410;48.694;8.934;2023-05-01T14:44:17;3.00;;;1.75;;
67595;SDS011;54410;48.694;8.934;2023-05-01T14:46:47;2.40;;;1.83;;
67595;SDS011;54410;48.694;8.934;2023-05-01T14:49:19;1.98;;;1.60;;
67595;SDS011;54410;48.694;8.934;2023-05-01T14:51:45;2.78;;;1.80;;
67595;SDS011;54410;48.694;8.934;2023-05-01T14:54:11;2.17;;;1.85;;
67595;SDS011;54410;48.694;8.934;2023-05-01T14:56:38;2.67;;;1.77;;
67595;SDS011;54410;48.694;8.934;2023-05-01T14:59:04;4.07;;;2.35;;
67595;SDS011;54410;48.694;8.934;2023-05-01T15:01:30;3.45;;;1.70;;
67595;SDS011;54410;48.694;8.934;2023-05-01T15:03:56;4.60;;;1.90;;
67595;SDS011;54410;48.694;8.934;2023-05-01T15:06:23;4.07;;;2.50;;
67595;SDS011;54410;48.694;8.934;2023-05-01T15:08:49;3.05;;;2.40;;
67595;SDS011;54410;48.694;8.934;2023-05-01T15:11:15;3.65;;;2.10;;
67595;SDS011;54410;48.694;8.934;2023-05-01T15:13:45;5.65;;;2.90;;
67595;SDS011;54410;48.694;8.934;2023-05-01T15:16:14;4.10;;;2.72;;
67595;SDS011;54410;48.694;8.934;2023-05-01T15:18:40;5.63;;;2.92;;
67595;SDS011;54410;48.694;8.934;2023-05-01T15:21:06;2.80;;;2.22;;
67595;SDS011;54410;48.694;8.934;2023-05-01T15:23:32;4.05;;;3.17;;
67595;SDS011;54410;48.694;8.934;2023-05-01T15:25:58;3.47;;;2.45;;
67595;SDS011;54410;48.694;8.934;2023-05-01T15:28:25;2.85;;;1.90;;
67595;SDS011;54410;48.694;8.934;2023-05-01T15:30:51;4.43;;;2.63;;
67595;SDS011;54410;48.694;8.934;2023-05-01T15:33:17;7.03;;;3.22;;
67595;SDS011;54410;48.694;8.934;2023-05-01T15:35:43;4.07;;;2.90;;